sensor_id;sensor_type;location;lat;lon;timestamp;temperature;humidity
74416;SHT31;62850;42.428;25.618;2023-08-30T00:01:32;25.70;50.63
74416;SHT31;62850;42.428;25.618;2023-08-30T00:03:57;25.58;50.90
74416;SHT31;62850;42.428;25.618;2023-08-30T00:06:23;25.60;50.75
74416;SHT31;62850;42.428;25.618;2023-08-30T00:08:49;25.58;50.78
74416;SHT31;62850;42.428;25.618;2023-08-30T00:11:14;25.58;50.83
74416;SHT31;62850;42.428;25.618;2023-08-30T00:13:40;25.55;50.80
74416;SHT31;62850;42.428;25.618;2023-08-30T00:16:06;25.45;51.30
74416;SHT31;62850;42.428;25.618;2023-08-30T00:18:32;25.47;51.23
74416;SHT31;62850;42.428;25.618;2023-08-30T00:20:57;25.47;51.30
74416;SHT31;62850;42.428;25.618;2023-08-30T00:23:23;25.44;51.32
74416;SHT31;62850;42.428;25.618;2023-08-30T00:25:49;25.47;51.59
74416;SHT31;62850;42.428;25.618;2023-08-30T00:28:14;25.45;51.54
74416;SHT31;62850;42.428;25.618;2023-08-30T00:30:40;25.48;51.36
74416;SHT31;62850;42.428;25.618;2023-08-30T00:33:05;25.44;51.39
74416;SHT31;62850;42.428;25.618;2023-08-30T00:35:31;25.40;51.46
74416;SHT31;62850;42.428;25.618;2023-08-30T00:37:56;25.35;51.95
74416;SHT31;62850;42.428;25.618;2023-08-30T00:40:25;25.31;52.07
74416;SHT31;62850;42.428;25.618;2023-08-30T00:42:51;25.30;51.84
74416;SHT31;62850;42.428;25.618;2023-08-30T00:45:18;25.30;52.14
74416;SHT31;62850;42.428;25.618;2023-08-30T00:47:43;25.28;52.14
74416;SHT31;62850;42.428;25.618;2023-08-30T00:50:09;25.26;51.85
74416;SHT31;62850;42.428;25.618;2023-08-30T00:52:35;25.27;52.40
74416;SHT31;62850;42.428;25.618;2023-08-30T00:55:01;25.17;52.08
74416;SHT31;62850;42.428;25.618;2023-08-30T00:57:26;25.22;52.11
74416;SHT31;62850;42.428;25.618;2023-08-30T00:59:53;25.19;52.43
74416;SHT31;62850;42.428;25.618;2023-08-30T01:02:18;25.13;52.39
74416;SHT31;62850;42.428;25.618;2023-08-30T01:04:45;25.12;52.52
74416;SHT31;62850;42.428;25.618;2023-08-30T01:07:11;25.07;52.54
74416;SHT31;62850;42.428;25.618;2023-08-30T01:09:36;25.03;52.68
74416;SHT31;62850;42.428;25.618;2023-08-30T01:12:10;25.03;52.89
74416;SHT31;62850;42.428;25.618;2023-08-30T01:14:38;24.97;53.08
74416;SHT31;62850;42.428;25.618;2023-08-30T01:17:07;25.00;53.17
74416;SHT31;62850;42.428;25.618;2023-08-30T01:20:05;24.97;53.39
74416;SHT31;62850;42.428;25.618;2023-08-30T01:23:03;24.95;53.31
74416;SHT31;62850;42.428;25.618;2023-08-30T01:28:16;24.87;53.33
74416;SHT31;62850;42.428;25.618;2023-08-30T01:30:45;24.89;53.80
74416;SHT31;62850;42.428;25.618;2023-08-30T01:33:13;24.87;53.35
74416;SHT31;62850;42.428;25.618;2023-08-30T01:35:39;24.85;53.56
74416;SHT31;62850;42.428;25.618;2023-08-30T01:38:06;24.77;53.53
74416;SHT31;62850;42.428;25.618;2023-08-30T01:40:41;24.75;53.85
74416;SHT31;62850;42.428;25.618;2023-08-30T01:43:08;24.76;53.73
74416;SHT31;62850;42.428;25.618;2023-08-30T01:45:38;24.71;53.85
74416;SHT31;62850;42.428;25.618;2023-08-30T01:48:06;24.64;53.92
74416;SHT31;62850;42.428;25.618;2023-08-30T01:50:33;24.68;53.93
74416;SHT31;62850;42.428;25.618;2023-08-30T01:53:00;24.64;54.01
74416;SHT31;62850;42.428;25.618;2023-08-30T01:55:29;24.69;54.41
74416;SHT31;62850;42.428;25.618;2023-08-30T01:57:55;24.62;54.38
74416;SHT31;62850;42.428;25.618;2023-08-30T02:00:21;24.61;54.55
74416;SHT31;62850;42.428;25.618;2023-08-30T02:02:48;24.65;54.18
74416;SHT31;62850;42.428;25.618;2023-08-30T02:05:13;24.62;54.34
74416;SHT31;62850;42.428;25.618;2023-08-30T02:08:15;24.62;54.25
74416;SHT31;62850;42.428;25.618;2023-08-30T02:10:50;24.58;54.47
74416;SHT31;62850;42.428;25.618;2023-08-30T02:13:20;24.62;54.50
74416;SHT31;62850;42.428;25.618;2023-08-30T02:15:47;24.56;54.65
74416;SHT31;62850;42.428;25.618;2023-08-30T02:18:13;24.54;54.55
74416;SHT31;62850;42.428;25.618;2023-08-30T02:20:39;24.48;54.71
74416;SHT31;62850;42.428;25.618;2023-08-30T02:23:04;24.51;55.02
74416;SHT31;62850;42.428;25.618;2023-08-30T02:25:30;24.56;54.90
74416;SHT31;62850;42.428;25.618;2023-08-30T02:27:55;24.49;54.81
74416;SHT31;62850;42.428;25.618;2023-08-30T02:30:21;24.51;54.86
74416;SHT31;62850;42.428;25.618;2023-08-30T02:32:46;24.55;54.73
74416;SHT31;62850;42.428;25.618;2023-08-30T02:35:12;24.58;54.58
74416;SHT31;62850;42.428;25.618;2023-08-30T02:37:37;24.55;54.84
74416;SHT31;62850;42.428;25.618;2023-08-30T02:40:03;24.56;54.83
74416;SHT31;62850;42.428;25.618;2023-08-30T02:42:28;24.54;55.06
74416;SHT31;62850;42.428;25.618;2023-08-30T02:44:54;24.47;55.18
74416;SHT31;62850;42.428;25.618;2023-08-30T02:47:20;24.47;55.11
74416;SHT31;62850;42.428;25.618;2023-08-30T02:49:45;24.45;55.46
74416;SHT31;62850;42.428;25.618;2023-08-30T02:52:10;24.42;55.45
74416;SHT31;62850;42.428;25.618;2023-08-30T02:54:36;24.41;55.57
74416;SHT31;62850;42.428;25.618;2023-08-30T02:57:01;24.34;55.63
74416;SHT31;62850;42.428;25.618;2023-08-30T02:59:27;24.34;55.51
74416;SHT31;62850;42.428;25.618;2023-08-30T03:01:52;24.39;55.70
74416;SHT31;62850;42.428;25.618;2023-08-30T03:04:18;24.38;55.96
74416;SHT31;62850;42.428;25.618;2023-08-30T03:06:43;24.36;55.85
74416;SHT31;62850;42.428;25.618;2023-08-30T03:09:09;24.27;56.51
74416;SHT31;62850;42.428;25.618;2023-08-30T03:11:34;24.22;56.30
74416;SHT31;62850;42.428;25.618;2023-08-30T03:14:00;24.22;56.43
74416;SHT31;62850;42.428;25.618;2023-08-30T03:16:25;24.22;56.36
74416;SHT31;62850;42.428;25.618;2023-08-30T03:18:51;24.15;56.61
74416;SHT31;62850;42.428;25.618;2023-08-30T03:21:16;24.15;56.97
74416;SHT31;62850;42.428;25.618;2023-08-30T03:23:42;24.11;56.97
74416;SHT31;62850;42.428;25.618;2023-08-30T03:26:09;24.04;57.01
74416;SHT31;62850;42.428;25.618;2023-08-30T03:28:35;24.07;57.22
74416;SHT31;62850;42.428;25.618;2023-08-30T03:31:00;24.01;57.42
74416;SHT31;62850;42.428;25.618;2023-08-30T03:33:26;23.94;57.72
74416;SHT31;62850;42.428;25.618;2023-08-30T03:35:51;23.97;57.94
74416;SHT31;62850;42.428;25.618;2023-08-30T03:38:17;23.94;57.42
74416;SHT31;62850;42.428;25.618;2023-08-30T03:40:42;23.94;57.73
74416;SHT31;62850;42.428;25.618;2023-08-30T03:43:08;23.90;57.69
74416;SHT31;62850;42.428;25.618;2023-08-30T03:45:37;23.93;58.02
74416;SHT31;62850;42.428;25.618;2023-08-30T03:48:04;23.87;57.73
74416;SHT31;62850;42.428;25.618;2023-08-30T03:50:29;23.84;58.13
74416;SHT31;62850;42.428;25.618;2023-08-30T03:52:55;23.83;57.84
74416;SHT31;62850;42.428;25.618;2023-08-30T03:55:20;23.84;57.93
74416;SHT31;62850;42.428;25.618;2023-08-30T03:57:48;23.87;58.00
74416;SHT31;62850;42.428;25.618;2023-08-30T04:00:14;23.83;57.87
74416;SHT31;62850;42.428;25.618;2023-08-30T04:02:39;23.90;57.86
74416;SHT31;62850;42.428;25.618;2023-08-30T04:05:05;23.84;58.27
74416;SHT31;62850;42.428;25.618;2023-08-30T04:07:35;23.87;58.20
74416;SHT31;62850;42.428;25.618;2023-08-30T04:10:01;23.94;58.13
74416;SHT31;62850;42.428;25.618;2023-08-30T04:12:28;23.98;58.67
74416;SHT31;62850;42.428;25.618;2023-08-30T04:14:53;23.93;58.45
74416;SHT31;62850;42.428;25.618;2023-08-30T04:17:19;23.88;58.70
74416;SHT31;62850;42.428;25.618;2023-08-30T04:19:44;23.88;59.33
74416;SHT31;62850;42.428;25.618;2023-08-30T04:22:10;23.96;58.38
74416;SHT31;62850;42.428;25.618;2023-08-30T04:24:35;23.94;58.86
74416;SHT31;62850;42.428;25.618;2023-08-30T04:27:01;23.92;58.24
74416;SHT31;62850;42.428;25.618;2023-08-30T04:29:26;23.90;59.19
74416;SHT31;62850;42.428;25.618;2023-08-30T04:31:52;23.86;59.16
74416;SHT31;62850;42.428;25.618;2023-08-30T04:34:17;23.84;59.26
74416;SHT31;62850;42.428;25.618;2023-08-30T04:36:43;23.86;59.12
74416;SHT31;62850;42.428;25.618;2023-08-30T04:39:09;23.93;59.67
74416;SHT31;62850;42.428;25.618;2023-08-30T04:41:35;23.94;59.27
74416;SHT31;62850;42.428;25.618;2023-08-30T04:44:00;24.07;58.71
74416;SHT31;62850;42.428;25.618;2023-08-30T04:46:26;24.14;59.46
74416;SHT31;62850;42.428;25.618;2023-08-30T04:48:51;24.18;59.45
74416;SHT31;62850;42.428;25.618;2023-08-30T04:51:17;24.27;59.56
74416;SHT31;62850;42.428;25.618;2023-08-30T04:53:42;24.32;59.06
74416;SHT31;62850;42.428;25.618;2023-08-30T04:56:13;24.42;59.50
74416;SHT31;62850;42.428;25.618;2023-08-30T04:58:39;24.45;58.54
74416;SHT31;62850;42.428;25.618;2023-08-30T05:01:05;24.44;58.68
74416;SHT31;62850;42.428;25.618;2023-08-30T05:03:30;24.52;58.43
74416;SHT31;62850;42.428;25.618;2023-08-30T05:05:56;24.55;57.98
74416;SHT31;62850;42.428;25.618;2023-08-30T05:08:21;24.64;57.65
74416;SHT31;62850;42.428;25.618;2023-08-30T05:10:47;24.72;57.89
74416;SHT31;62850;42.428;25.618;2023-08-30T05:13:16;24.75;58.66
74416;SHT31;62850;42.428;25.618;2023-08-30T05:15:42;24.75;59.50
74416;SHT31;62850;42.428;25.618;2023-08-30T05:18:07;24.82;59.71
74416;SHT31;62850;42.428;25.618;2023-08-30T05:20:33;24.89;59.89
74416;SHT31;62850;42.428;25.618;2023-08-30T05:22:58;24.85;60.72
74416;SHT31;62850;42.428;25.618;2023-08-30T05:25:24;24.93;60.76
74416;SHT31;62850;42.428;25.618;2023-08-30T05:27:49;24.97;61.05
74416;SHT31;62850;42.428;25.618;2023-08-30T05:30:15;25.03;61.19
74416;SHT31;62850;42.428;25.618;2023-08-30T05:32:41;25.03;61.31
74416;SHT31;62850;42.428;25.618;2023-08-30T05:35:07;25.03;61.72
74416;SHT31;62850;42.428;25.618;2023-08-30T05:37:32;25.02;62.19
74416;SHT31;62850;42.428;25.618;2023-08-30T05:39:58;25.13;62.52
74416;SHT31;62850;42.428;25.618;2023-08-30T05:42:23;25.17;62.90
74416;SHT31;62850;42.428;25.618;2023-08-30T05:44:49;25.22;62.89
74416;SHT31;62850;42.428;25.618;2023-08-30T05:47:14;25.27;63.31
74416;SHT31;62850;42.428;25.618;2023-08-30T05:49:42;25.26;63.63
74416;SHT31;62850;42.428;25.618;2023-08-30T05:52:07;25.24;63.81
74416;SHT31;62850;42.428;25.618;2023-08-30T05:54:33;25.33;64.02
74416;SHT31;62850;42.428;25.618;2023-08-30T05:56:59;25.41;64.35
74416;SHT31;62850;42.428;25.618;2023-08-30T05:59:25;25.41;65.59
74416;SHT31;62850;42.428;25.618;2023-08-30T06:01:50;25.47;65.28
74416;SHT31;62850;42.428;25.618;2023-08-30T06:04:16;25.58;65.07
74416;SHT31;62850;42.428;25.618;2023-08-30T06:06:41;25.65;65.55
74416;SHT31;62850;42.428;25.618;2023-08-30T06:09:06;25.67;65.44
74416;SHT31;62850;42.428;25.618;2023-08-30T06:11:32;25.71;65.51
74416;SHT31;62850;42.428;25.618;2023-08-30T06:13:58;25.74;65.42
74416;SHT31;62850;42.428;25.618;2023-08-30T06:16:27;25.88;65.52
74416;SHT31;62850;42.428;25.618;2023-08-30T06:18:52;25.92;65.85
74416;SHT31;62850;42.428;25.618;2023-08-30T06:21:17;25.98;65.69
74416;SHT31;62850;42.428;25.618;2023-08-30T06:23:43;25.95;65.41
74416;SHT31;62850;42.428;25.618;2023-08-30T06:26:08;26.01;64.92
74416;SHT31;62850;42.428;25.618;2023-08-30T06:28:34;26.08;64.24
74416;SHT31;62850;42.428;25.618;2023-08-30T06:30:59;26.13;63.43
74416;SHT31;62850;42.428;25.618;2023-08-30T06:33:25;26.21;63.34
74416;SHT31;62850;42.428;25.618;2023-08-30T06:35:50;26.33;62.94
74416;SHT31;62850;42.428;25.618;2023-08-30T06:38:16;26.47;62.69
74416;SHT31;62850;42.428;25.618;2023-08-30T06:40:48;26.50;62.76
74416;SHT31;62850;42.428;25.618;2023-08-30T06:43:14;26.49;62.51
74416;SHT31;62850;42.428;25.618;2023-08-30T06:45:43;26.56;62.09
74416;SHT31;62850;42.428;25.618;2023-08-30T06:48:09;26.65;60.85
74416;SHT31;62850;42.428;25.618;2023-08-30T06:50:35;26.73;60.65
74416;SHT31;62850;42.428;25.618;2023-08-30T06:53:01;26.79;60.26
74416;SHT31;62850;42.428;25.618;2023-08-30T06:55:27;26.86;60.55
74416;SHT31;62850;42.428;25.618;2023-08-30T06:57:54;26.90;60.42
74416;SHT31;62850;42.428;25.618;2023-08-30T07:00:20;26.92;60.04
74416;SHT31;62850;42.428;25.618;2023-08-30T07:02:46;26.98;59.69
74416;SHT31;62850;42.428;25.618;2023-08-30T07:05:12;26.95;58.76
74416;SHT31;62850;42.428;25.618;2023-08-30T07:07:37;27.10;58.88
74416;SHT31;62850;42.428;25.618;2023-08-30T07:10:03;27.19;58.52
74416;SHT31;62850;42.428;25.618;2023-08-30T07:12:29;27.25;58.06
74416;SHT31;62850;42.428;25.618;2023-08-30T07:14:55;27.39;57.86
74416;SHT31;62850;42.428;25.618;2023-08-30T07:17:21;27.55;57.64
74416;SHT31;62850;42.428;25.618;2023-08-30T07:19:46;27.56;57.77
74416;SHT31;62850;42.428;25.618;2023-08-30T07:22:12;27.70;57.01
74416;SHT31;62850;42.428;25.618;2023-08-30T07:24:37;28.00;56.04
74416;SHT31;62850;42.428;25.618;2023-08-30T07:27:03;28.33;55.03
74416;SHT31;62850;42.428;25.618;2023-08-30T07:29:28;28.62;54.00
74416;SHT31;62850;42.428;25.618;2023-08-30T07:31:54;28.82;52.41
74416;SHT31;62850;42.428;25.618;2023-08-30T07:34:20;28.99;52.06
74416;SHT31;62850;42.428;25.618;2023-08-30T07:36:45;29.37;51.49
74416;SHT31;62850;42.428;25.618;2023-08-30T07:39:11;29.60;51.01
74416;SHT31;62850;42.428;25.618;2023-08-30T07:41:37;29.82;50.07
74416;SHT31;62850;42.428;25.618;2023-08-30T07:44:02;29.95;49.38
74416;SHT31;62850;42.428;25.618;2023-08-30T07:46:28;30.05;49.26
74416;SHT31;62850;42.428;25.618;2023-08-30T07:48:54;30.31;48.71
74416;SHT31;62850;42.428;25.618;2023-08-30T07:51:20;30.52;48.06
74416;SHT31;62850;42.428;25.618;2023-08-30T07:53:46;30.64;48.22
74416;SHT31;62850;42.428;25.618;2023-08-30T07:56:11;30.87;47.37
74416;SHT31;62850;42.428;25.618;2023-08-30T07:58:37;31.04;46.69
74416;SHT31;62850;42.428;25.618;2023-08-30T08:01:02;31.27;45.71
74416;SHT31;62850;42.428;25.618;2023-08-30T08:03:28;31.41;45.61
74416;SHT31;62850;42.428;25.618;2023-08-30T08:05:54;31.46;45.38
74416;SHT31;62850;42.428;25.618;2023-08-30T08:08:19;31.57;45.74
74416;SHT31;62850;42.428;25.618;2023-08-30T08:10:45;31.82;45.19
74416;SHT31;62850;42.428;25.618;2023-08-30T08:13:11;31.88;45.04
74416;SHT31;62850;42.428;25.618;2023-08-30T08:15:38;32.03;44.74
74416;SHT31;62850;42.428;25.618;2023-08-30T08:18:03;32.10;44.26
74416;SHT31;62850;42.428;25.618;2023-08-30T08:20:29;32.13;44.29
74416;SHT31;62850;42.428;25.618;2023-08-30T08:22:55;32.30;43.74
74416;SHT31;62850;42.428;25.618;2023-08-30T08:25:21;32.37;42.82
74416;SHT31;62850;42.428;25.618;2023-08-30T08:27:49;32.53;42.42
74416;SHT31;62850;42.428;25.618;2023-08-30T08:30:14;32.47;42.38
74416;SHT31;62850;42.428;25.618;2023-08-30T08:32:40;32.68;42.02
74416;SHT31;62850;42.428;25.618;2023-08-30T08:35:05;32.82;41.63
74416;SHT31;62850;42.428;25.618;2023-08-30T08:37:31;32.87;42.56
74416;SHT31;62850;42.428;25.618;2023-08-30T08:39:57;32.87;42.28
74416;SHT31;62850;42.428;25.618;2023-08-30T08:42:23;32.91;41.49
74416;SHT31;62850;42.428;25.618;2023-08-30T08:44:53;32.84;41.87
74416;SHT31;62850;42.428;25.618;2023-08-30T08:47:20;32.95;41.56
74416;SHT31;62850;42.428;25.618;2023-08-30T08:49:47;33.04;41.59
74416;SHT31;62850;42.428;25.618;2023-08-30T08:52:16;32.99;42.04
74416;SHT31;62850;42.428;25.618;2023-08-30T08:54:42;32.89;41.51
74416;SHT31;62850;42.428;25.618;2023-08-30T08:57:08;32.82;40.97
74416;SHT31;62850;42.428;25.618;2023-08-30T08:59:34;33.05;41.02
74416;SHT31;62850;42.428;25.618;2023-08-30T09:02:01;33.19;40.47
74416;SHT31;62850;42.428;25.618;2023-08-30T09:04:31;33.25;40.62
74416;SHT31;62850;42.428;25.618;2023-08-30T09:07:00;33.33;40.63
74416;SHT31;62850;42.428;25.618;2023-08-30T09:09:27;33.25;40.78
74416;SHT31;62850;42.428;25.618;2023-08-30T09:11:52;33.29;41.04
74416;SHT31;62850;42.428;25.618;2023-08-30T09:14:18;33.49;40.60
74416;SHT31;62850;42.428;25.618;2023-08-30T09:17:04;33.55;40.48
74416;SHT31;62850;42.428;25.618;2023-08-30T09:19:30;33.55;40.38
74416;SHT31;62850;42.428;25.618;2023-08-30T09:21:57;33.67;40.59
74416;SHT31;62850;42.428;25.618;2023-08-30T09:24:23;33.53;41.26
74416;SHT31;62850;42.428;25.618;2023-08-30T09:26:50;33.74;40.25
74416;SHT31;62850;42.428;25.618;2023-08-30T09:29:18;33.73;40.19
74416;SHT31;62850;42.428;25.618;2023-08-30T09:31:44;33.86;40.04
74416;SHT31;62850;42.428;25.618;2023-08-30T09:34:10;33.89;40.32
74416;SHT31;62850;42.428;25.618;2023-08-30T09:36:40;33.97;39.87
74416;SHT31;62850;42.428;25.618;2023-08-30T09:39:10;34.01;40.24
74416;SHT31;62850;42.428;25.618;2023-08-30T09:41:39;33.72;39.87
74416;SHT31;62850;42.428;25.618;2023-08-30T09:44:06;33.49;39.90
74416;SHT31;62850;42.428;25.618;2023-08-30T09:46:31;33.66;39.97
74416;SHT31;62850;42.428;25.618;2023-08-30T09:48:57;33.87;39.14
74416;SHT31;62850;42.428;25.618;2023-08-30T09:51:24;34.13;39.34
74416;SHT31;62850;42.428;25.618;2023-08-30T09:53:53;34.31;39.10
74416;SHT31;62850;42.428;25.618;2023-08-30T09:56:22;34.45;38.64
74416;SHT31;62850;42.428;25.618;2023-08-30T09:58:47;34.63;37.84
74416;SHT31;62850;42.428;25.618;2023-08-30T10:01:14;34.56;37.76
74416;SHT31;62850;42.428;25.618;2023-08-30T10:03:40;34.52;37.08
74416;SHT31;62850;42.428;25.618;2023-08-30T10:06:06;34.73;37.14
74416;SHT31;62850;42.428;25.618;2023-08-30T10:08:32;34.81;36.66
74416;SHT31;62850;42.428;25.618;2023-08-30T10:10:59;34.65;36.38
74416;SHT31;62850;42.428;25.618;2023-08-30T10:13:25;34.08;36.92
74416;SHT31;62850;42.428;25.618;2023-08-30T10:15:55;33.59;37.94
74416;SHT31;62850;42.428;25.618;2023-08-30T10:18:25;33.47;38.67
74416;SHT31;62850;42.428;25.618;2023-08-30T10:20:54;33.46;38.73
74416;SHT31;62850;42.428;25.618;2023-08-30T10:23:21;33.52;38.87
74416;SHT31;62850;42.428;25.618;2023-08-30T10:25:49;33.67;38.64
74416;SHT31;62850;42.428;25.618;2023-08-30T10:28:16;33.81;39.18
74416;SHT31;62850;42.428;25.618;2023-08-30T10:30:42;33.90;38.45
74416;SHT31;62850;42.428;25.618;2023-08-30T10:33:12;34.07;38.80
74416;SHT31;62850;42.428;25.618;2023-08-30T10:35:47;34.04;38.68
74416;SHT31;62850;42.428;25.618;2023-08-30T10:38:27;34.10;39.00
74416;SHT31;62850;42.428;25.618;2023-08-30T10:40:54;34.07;38.60
74416;SHT31;62850;42.428;25.618;2023-08-30T10:43:30;33.93;38.25
74416;SHT31;62850;42.428;25.618;2023-08-30T10:46:03;33.92;38.76
74416;SHT31;62850;42.428;25.618;2023-08-30T10:48:39;33.97;38.59
74416;SHT31;62850;42.428;25.618;2023-08-30T10:51:19;33.96;38.72
74416;SHT31;62850;42.428;25.618;2023-08-30T10:53:58;34.01;37.34
74416;SHT31;62850;42.428;25.618;2023-08-30T10:56:30;33.96;37.42
74416;SHT31;62850;42.428;25.618;2023-08-30T10:58:56;34.08;37.08
74416;SHT31;62850;42.428;25.618;2023-08-30T11:01:22;33.96;36.66
74416;SHT31;62850;42.428;25.618;2023-08-30T11:03:49;34.00;36.65
74416;SHT31;62850;42.428;25.618;2023-08-30T11:06:15;34.01;36.94
74416;SHT31;62850;42.428;25.618;2023-08-30T11:08:43;34.15;36.65
74416;SHT31;62850;42.428;25.618;2023-08-30T11:11:10;34.25;36.12
74416;SHT31;62850;42.428;25.618;2023-08-30T11:13:37;34.27;33.83
74416;SHT31;62850;42.428;25.618;2023-08-30T11:16:03;34.34;34.14
74416;SHT31;62850;42.428;25.618;2023-08-30T11:18:39;34.37;34.80
74416;SHT31;62850;42.428;25.618;2023-08-30T11:21:05;34.48;34.39
74416;SHT31;62850;42.428;25.618;2023-08-30T11:23:31;34.49;34.94
74416;SHT31;62850;42.428;25.618;2023-08-30T11:25:58;34.54;34.80
74416;SHT31;62850;42.428;25.618;2023-08-30T11:28:24;34.35;35.05
74416;SHT31;62850;42.428;25.618;2023-08-30T11:30:50;34.42;34.80
74416;SHT31;62850;42.428;25.618;2023-08-30T11:33:17;34.44;34.87
74416;SHT31;62850;42.428;25.618;2023-08-30T11:35:44;34.47;34.99
74416;SHT31;62850;42.428;25.618;2023-08-30T11:38:10;34.52;34.67
74416;SHT31;62850;42.428;25.618;2023-08-30T11:40:36;34.61;33.99
74416;SHT31;62850;42.428;25.618;2023-08-30T11:43:02;34.75;34.47
74416;SHT31;62850;42.428;25.618;2023-08-30T11:45:31;34.92;33.77
74416;SHT31;62850;42.428;25.618;2023-08-30T11:47:58;34.95;33.93
74416;SHT31;62850;42.428;25.618;2023-08-30T11:50:25;34.98;33.28
74416;SHT31;62850;42.428;25.618;2023-08-30T11:52:51;35.04;32.77
74416;SHT31;62850;42.428;25.618;2023-08-30T11:55:18;34.98;31.88
74416;SHT31;62850;42.428;25.618;2023-08-30T11:57:44;34.89;32.17
74416;SHT31;62850;42.428;25.618;2023-08-30T12:00:11;34.89;33.40
74416;SHT31;62850;42.428;25.618;2023-08-30T12:02:37;34.93;33.52
74416;SHT31;62850;42.428;25.618;2023-08-30T12:05:03;34.96;33.22
74416;SHT31;62850;42.428;25.618;2023-08-30T12:07:29;34.89;33.14
74416;SHT31;62850;42.428;25.618;2023-08-30T12:10:09;35.06;33.54
74416;SHT31;62850;42.428;25.618;2023-08-30T12:12:35;35.07;32.78
74416;SHT31;62850;42.428;25.618;2023-08-30T12:15:11;35.09;32.53
74416;SHT31;62850;42.428;25.618;2023-08-30T12:17:36;35.16;32.81
74416;SHT31;62850;42.428;25.618;2023-08-30T12:20:03;35.31;32.49
74416;SHT31;62850;42.428;25.618;2023-08-30T12:22:46;35.39;32.24
74416;SHT31;62850;42.428;25.618;2023-08-30T12:25:17;35.37;32.90
74416;SHT31;62850;42.428;25.618;2023-08-30T12:27:43;35.39;32.62
74416;SHT31;62850;42.428;25.618;2023-08-30T12:30:09;35.41;32.99
74416;SHT31;62850;42.428;25.618;2023-08-30T12:32:34;35.44;32.42
74416;SHT31;62850;42.428;25.618;2023-08-30T12:35:00;34.98;33.38
74416;SHT31;62850;42.428;25.618;2023-08-30T12:37:25;34.98;33.24
74416;SHT31;62850;42.428;25.618;2023-08-30T12:39:50;34.88;34.27
74416;SHT31;62850;42.428;25.618;2023-08-30T12:42:16;34.93;33.42
74416;SHT31;62850;42.428;25.618;2023-08-30T12:44:41;34.99;33.71
74416;SHT31;62850;42.428;25.618;2023-08-30T12:47:07;35.02;33.88
74416;SHT31;62850;42.428;25.618;2023-08-30T12:49:32;35.02;32.81
74416;SHT31;62850;42.428;25.618;2023-08-30T12:51:58;34.83;33.84
74416;SHT31;62850;42.428;25.618;2023-08-30T12:54:23;34.86;33.14
74416;SHT31;62850;42.428;25.618;2023-08-30T12:56:49;35.09;34.27
74416;SHT31;62850;42.428;25.618;2023-08-30T12:59:14;35.17;32.89
74416;SHT31;62850;42.428;25.618;2023-08-30T13:01:40;35.13;33.39
74416;SHT31;62850;42.428;25.618;2023-08-30T13:04:05;35.14;33.83
74416;SHT31;62850;42.428;25.618;2023-08-30T13:06:31;35.20;32.71
74416;SHT31;62850;42.428;25.618;2023-08-30T13:08:56;35.14;32.90
74416;SHT31;62850;42.428;25.618;2023-08-30T13:11:22;35.29;32.89
74416;SHT31;62850;42.428;25.618;2023-08-30T13:13:47;35.54;32.34
74416;SHT31;62850;42.428;25.618;2023-08-30T13:16:13;35.64;32.62
74416;SHT31;62850;42.428;25.618;2023-08-30T13:18:38;35.68;32.16
74416;SHT31;62850;42.428;25.618;2023-08-30T13:21:04;35.64;32.23
74416;SHT31;62850;42.428;25.618;2023-08-30T13:23:32;35.60;32.58
74416;SHT31;62850;42.428;25.618;2023-08-30T13:25:57;35.67;32.18
74416;SHT31;62850;42.428;25.618;2023-08-30T13:28:23;35.73;31.61
74416;SHT31;62850;42.428;25.618;2023-08-30T13:30:48;35.73;31.55
74416;SHT31;62850;42.428;25.618;2023-08-30T13:33:15;35.81;31.10
74416;SHT31;62850;42.428;25.618;2023-08-30T13:35:41;35.73;31.08
74416;SHT31;62850;42.428;25.618;2023-08-30T13:38:06;35.25;32.02
74416;SHT31;62850;42.428;25.618;2023-08-30T13:40:32;34.85;32.81
74416;SHT31;62850;42.428;25.618;2023-08-30T13:42:57;34.51;33.55
74416;SHT31;62850;42.428;25.618;2023-08-30T13:45:22;34.48;33.65
74416;SHT31;62850;42.428;25.618;2023-08-30T13:47:48;34.76;33.53
74416;SHT31;62850;42.428;25.618;2023-08-30T13:50:17;35.00;33.07
74416;SHT31;62850;42.428;25.618;2023-08-30T13:52:42;35.14;33.01
74416;SHT31;62850;42.428;25.618;2023-08-30T13:55:08;34.96;32.86
74416;SHT31;62850;42.428;25.618;2023-08-30T13:57:33;34.62;33.59
74416;SHT31;62850;42.428;25.618;2023-08-30T13:59:59;34.47;33.82
74416;SHT31;62850;42.428;25.618;2023-08-30T14:02:25;34.63;33.86
74416;SHT31;62850;42.428;25.618;2023-08-30T14:04:51;34.51;34.06
74416;SHT31;62850;42.428;25.618;2023-08-30T14:07:16;34.33;33.41
74416;SHT31;62850;42.428;25.618;2023-08-30T14:09:42;34.03;34.28
74416;SHT31;62850;42.428;25.618;2023-08-30T14:12:08;34.01;32.73
74416;SHT31;62850;42.428;25.618;2023-08-30T14:14:33;34.28;33.36
74416;SHT31;62850;42.428;25.618;2023-08-30T14:16:59;34.47;33.82
74416;SHT31;62850;42.428;25.618;2023-08-30T14:19:24;34.61;33.18
74416;SHT31;62850;42.428;25.618;2023-08-30T14:21:50;34.56;33.27
74416;SHT31;62850;42.428;25.618;2023-08-30T14:24:15;34.59;32.03
74416;SHT31;62850;42.428;25.618;2023-08-30T14:26:41;34.62;33.36
74416;SHT31;62850;42.428;25.618;2023-08-30T14:29:06;34.85;32.92
74416;SHT31;62850;42.428;25.618;2023-08-30T14:31:32;34.96;31.70
74416;SHT31;62850;42.428;25.618;2023-08-30T14:33:57;34.71;32.47
74416;SHT31;62850;42.428;25.618;2023-08-30T14:36:23;34.68;31.18
74416;SHT31;62850;42.428;25.618;2023-08-30T14:38:48;34.68;32.10
74416;SHT31;62850;42.428;25.618;2023-08-30T14:41:14;34.61;32.36
74416;SHT31;62850;42.428;25.618;2023-08-30T14:43:41;34.63;31.34
74416;SHT31;62850;42.428;25.618;2023-08-30T14:46:07;34.58;32.26
74416;SHT31;62850;42.428;25.618;2023-08-30T14:48:33;34.63;32.32
74416;SHT31;62850;42.428;25.618;2023-08-30T14:50:59;34.72;32.42
74416;SHT31;62850;42.428;25.618;2023-08-30T14:53:25;34.76;32.28
74416;SHT31;62850;42.428;25.618;2023-08-30T14:55:50;34.59;32.49
74416;SHT31;62850;42.428;25.618;2023-08-30T14:58:16;34.62;32.32
74416;SHT31;62850;42.428;25.618;2023-08-30T15:00:41;34.61;32.49
74416;SHT31;62850;42.428;25.618;2023-08-30T15:03:07;34.55;32.66
74416;SHT31;62850;42.428;25.618;2023-08-30T15:05:32;34.29;33.02
74416;SHT31;62850;42.428;25.618;2023-08-30T15:07:58;34.14;32.88
74416;SHT31;62850;42.428;25.618;2023-08-30T15:10:24;34.04;33.06
74416;SHT31;62850;42.428;25.618;2023-08-30T15:12:49;33.93;33.34
74416;SHT31;62850;42.428;25.618;2023-08-30T15:15:15;33.78;33.64